createdAt,value
2018-07-02T00:00:33.162Z,0.50
2018-07-02T00:03:02.318Z,0.50
2018-07-02T00:05:37.004Z,0.70
2018-07-02T00:08:06.207Z,0.60
2018-07-02T00:10:35.250Z,0.60
2018-07-02T00:13:05.221Z,0.57
2018-07-02T00:15:34.920Z,0.50
2018-07-02T00:18:03.982Z,0.50
2018-07-02T00:20:34.401Z,0.70
2018-07-02T00:23:03.962Z,0.50
2018-07-02T00:25:33.742Z,0.60
2018-07-02T00:28:02.762Z,0.70
2018-07-02T00:30:32.285Z,0.70
2018-07-02T00:33:01.590Z,0.80
2018-07-02T00:35:31.038Z,0.60
2018-07-02T00:38:00.362Z,0.90
2018-07-02T00:40:29.709Z,1.00
2018-07-02T00:42:59.319Z,0.83
2018-07-02T00:45:28.385Z,0.70
2018-07-02T00:47:57.825Z,0.80
2018-07-02T00:50:27.259Z,0.50
2018-07-02T00:52:56.842Z,0.70
2018-07-02T00:55:26.190Z,0.70
2018-07-02T00:57:58.473Z,0.90
2018-07-02T01:00:28.109Z,0.70
2018-07-02T01:02:57.793Z,0.73
2018-07-02T01:05:27.002Z,0.70
2018-07-02T01:07:57.090Z,0.70
2018-07-02T01:10:26.217Z,0.80
2018-07-02T01:12:55.385Z,1.27
2018-07-02T01:15:25.079Z,1.30
2018-07-02T01:17:54.650Z,0.90
2018-07-02T01:20:24.194Z,1.00
2018-07-02T01:22:53.710Z,0.80
2018-07-02T01:25:22.937Z,1.07
2018-07-02T01:27:53.155Z,1.00
2018-07-02T01:30:22.185Z,1.00
2018-07-02T01:32:51.423Z,1.00
2018-07-02T01:35:20.385Z,1.40
2018-07-02T01:37:49.996Z,1.50
2018-07-02T01:40:19.050Z,1.43
2018-07-02T01:42:48.409Z,1.57
2018-07-02T01:45:17.582Z,1.63
2018-07-02T01:47:46.873Z,1.63
2018-07-02T01:50:16.573Z,1.70
2018-07-02T01:52:46.237Z,1.23
2018-07-02T01:55:15.237Z,1.30
2018-07-02T01:57:44.026Z,1.40
2018-07-02T02:00:13.486Z,1.33
2018-07-02T02:02:42.401Z,1.20
2018-07-02T02:05:11.578Z,1.60
2018-07-02T02:07:40.526Z,1.53
2018-07-02T02:10:10.157Z,1.30
2018-07-02T02:12:39.461Z,1.67
2018-07-02T02:15:09.573Z,1.33
2018-07-02T02:17:39.130Z,1.40
2018-07-02T02:20:08.326Z,1.00
2018-07-02T02:22:37.450Z,0.80
2018-07-02T02:25:06.786Z,1.07
2018-07-02T02:27:35.419Z,1.40
2018-07-02T02:30:05.094Z,1.10
2018-07-02T02:32:34.369Z,1.57
2018-07-02T02:35:03.648Z,1.50
2018-07-02T02:37:33.192Z,1.17
2018-07-02T02:40:02.059Z,1.00
2018-07-02T02:42:31.572Z,1.03
2018-07-02T02:45:00.868Z,1.20
2018-07-02T02:47:30.168Z,1.57
2018-07-02T02:49:59.694Z,1.10
2018-07-02T02:52:28.747Z,1.10
2018-07-02T02:54:58.311Z,1.00
2018-07-02T02:57:27.532Z,1.10
2018-07-02T02:59:57.850Z,1.13
2018-07-02T03:02:26.698Z,1.03
2018-07-02T03:04:56.034Z,1.47
2018-07-02T03:07:25.521Z,0.80
2018-07-02T03:09:54.837Z,1.10
2018-07-02T03:12:24.086Z,0.80
2018-07-02T03:14:54.033Z,1.03
2018-07-02T03:17:23.046Z,1.30
2018-07-02T03:19:52.405Z,1.80
2018-07-02T03:22:21.171Z,1.20
2018-07-02T03:24:50.771Z,0.80
2018-07-02T03:27:20.222Z,0.80
2018-07-02T03:29:49.959Z,1.27
2018-07-02T03:32:19.400Z,1.13
2018-07-02T03:34:50.610Z,2.00
2018-07-02T03:37:19.787Z,2.03
2018-07-02T03:39:49.354Z,1.87
2018-07-02T03:42:19.162Z,2.10
2018-07-02T03:44:49.181Z,1.87
2018-07-02T03:47:18.790Z,1.93
2018-07-02T03:49:48.207Z,1.80
2018-07-02T03:52:17.108Z,2.50
2018-07-02T03:54:46.006Z,2.33
2018-07-02T03:57:15.454Z,3.40
2018-07-02T03:59:45.874Z,2.90
2018-07-02T04:02:14.881Z,2.77
2018-07-02T04:04:44.349Z,3.40
2018-07-02T04:07:13.532Z,3.40
2018-07-02T04:09:42.792Z,3.60
2018-07-02T04:12:11.695Z,3.13
2018-07-02T04:14:40.468Z,3.77
2018-07-02T04:17:09.808Z,2.97
2018-07-02T04:19:38.977Z,3.50
2018-07-02T04:22:08.252Z,2.90
2018-07-02T04:24:37.250Z,3.37
2018-07-02T04:27:06.364Z,2.93
2018-07-02T04:29:35.451Z,3.53
2018-07-02T04:32:04.428Z,3.67
2018-07-02T04:34:34.508Z,3.93
2018-07-02T04:37:03.755Z,3.97
2018-07-02T04:39:32.656Z,3.47
2018-07-02T04:42:02.791Z,2.90
2018-07-02T04:44:32.036Z,4.00
2018-07-02T04:47:00.806Z,3.33
2018-07-02T04:49:29.563Z,3.63
2018-07-02T04:51:59.382Z,3.13
2018-07-02T04:54:28.339Z,2.70
2018-07-02T04:56:57.067Z,2.80
2018-07-02T04:59:26.386Z,2.13
2018-07-02T05:01:55.531Z,2.50
2018-07-02T05:04:24.633Z,1.77
2018-07-02T05:06:53.788Z,1.90
2018-07-02T05:09:22.971Z,1.97
2018-07-02T05:11:52.172Z,2.47
2018-07-02T05:14:21.441Z,1.70
2018-07-02T05:16:50.304Z,1.93
2018-07-02T05:19:19.799Z,1.90
2018-07-02T05:21:48.773Z,1.87
2018-07-02T05:24:17.775Z,2.47
2018-07-02T05:26:47.779Z,1.67
2018-07-02T05:29:16.935Z,3.03
2018-07-02T05:31:45.848Z,2.90
2018-07-02T05:34:15.599Z,2.10
2018-07-02T05:36:44.727Z,1.73
2018-07-02T05:39:14.588Z,1.57
2018-07-02T05:41:43.231Z,2.20
2018-07-02T05:44:12.620Z,1.10
2018-07-02T05:46:41.758Z,1.60
2018-07-02T05:49:11.020Z,1.50
2018-07-02T05:51:40.286Z,1.67
2018-07-02T05:54:09.493Z,1.40
2018-07-02T05:56:38.768Z,1.50
2018-07-02T05:59:08.104Z,1.30
2018-07-02T06:01:37.196Z,1.67
2018-07-02T06:04:06.476Z,1.73
2018-07-02T06:06:35.562Z,1.80
2018-07-02T06:09:06.376Z,1.73
2018-07-02T06:11:35.268Z,1.47
2018-07-02T06:14:04.460Z,2.23
2018-07-02T06:16:33.932Z,2.97
2018-07-02T06:19:02.784Z,1.57
2018-07-02T06:21:31.945Z,1.60
2018-07-02T06:24:00.976Z,1.83
2018-07-02T06:26:29.722Z,1.20
2018-07-02T06:28:58.940Z,1.60
2018-07-02T06:31:27.990Z,1.97
2018-07-02T06:33:57.207Z,1.37
2018-07-02T06:36:25.882Z,1.93
2018-07-02T06:38:55.363Z,1.60
2018-07-02T06:41:24.314Z,1.57
2018-07-02T06:43:53.327Z,1.77
2018-07-02T06:46:22.981Z,1.60
2018-07-02T06:48:51.876Z,1.40
2018-07-02T06:51:21.108Z,1.57
2018-07-02T06:53:50.309Z,1.70
2018-07-02T06:56:18.598Z,2.03
2018-07-02T06:58:47.833Z,1.70
2018-07-02T07:01:16.807Z,1.60
2018-07-02T07:03:46.605Z,1.77
2018-07-02T07:06:15.669Z,1.90
2018-07-02T07:08:45.284Z,1.40
2018-07-02T07:11:14.108Z,1.97
2018-07-02T07:13:44.001Z,1.00
2018-07-02T07:16:13.418Z,2.13
2018-07-02T07:18:42.632Z,2.40
2018-07-02T07:21:11.869Z,2.10
2018-07-02T07:23:40.865Z,1.63
2018-07-02T07:26:09.912Z,1.50
2018-07-02T07:28:39.274Z,1.33
2018-07-02T07:31:08.327Z,1.63
2018-07-02T07:33:37.304Z,1.73
2018-07-02T07:36:06.276Z,1.50
2018-07-02T07:38:35.467Z,1.67
2018-07-02T07:41:04.712Z,1.50
2018-07-02T07:43:33.807Z,1.70
2018-07-02T07:46:03.008Z,1.20
2018-07-02T07:48:32.848Z,1.40
2018-07-02T07:51:02.034Z,1.43
2018-07-02T07:53:31.263Z,1.60
2018-07-02T07:56:00.576Z,1.60
2018-07-02T07:58:29.627Z,1.23
2018-07-02T08:00:58.643Z,1.80
2018-07-02T08:03:27.765Z,1.37
2018-07-02T08:05:56.776Z,1.20
2018-07-02T08:08:25.927Z,1.40
2018-07-02T08:10:55.047Z,1.60
2018-07-02T08:13:24.050Z,1.20
2018-07-02T08:15:53.136Z,1.53
2018-07-02T08:18:22.381Z,1.30
2018-07-02T08:20:51.735Z,1.20
2018-07-02T08:23:20.768Z,1.13
2018-07-02T08:25:50.088Z,1.40
2018-07-02T08:28:19.043Z,2.07
2018-07-02T08:30:48.375Z,1.70
2018-07-02T08:33:17.197Z,1.20
2018-07-02T08:35:46.236Z,1.83
2018-07-02T08:38:15.193Z,2.00
2018-07-02T08:40:43.867Z,1.80
2018-07-02T08:43:12.825Z,1.80
2018-07-02T08:45:41.863Z,1.17
2018-07-02T08:48:10.815Z,1.60
2018-07-02T08:50:39.798Z,1.33
2018-07-02T08:53:08.707Z,1.37
2018-07-02T08:55:37.909Z,1.30
2018-07-02T08:58:07.307Z,1.27
2018-07-02T09:00:36.719Z,1.50
2018-07-02T09:03:06.072Z,1.40
2018-07-02T09:05:34.827Z,1.53
2018-07-02T09:08:03.912Z,1.30
2018-07-02T09:10:34.320Z,1.20
2018-07-02T09:13:03.168Z,1.10
2018-07-02T09:15:32.134Z,1.60
2018-07-02T09:18:01.052Z,1.50
2018-07-02T09:20:30.130Z,1.13
2018-07-02T09:22:58.900Z,1.60
2018-07-02T09:25:28.089Z,1.40
2018-07-02T09:27:56.696Z,1.33
2018-07-02T09:30:26.022Z,1.23
2018-07-02T09:32:54.649Z,1.10
2018-07-02T09:35:23.832Z,1.47
2018-07-02T09:37:53.441Z,1.57
2018-07-02T09:40:22.180Z,1.77
2018-07-02T09:42:51.004Z,1.67
2018-07-02T09:45:20.012Z,1.57
2018-07-02T09:47:49.044Z,1.30
2018-07-02T09:50:18.762Z,1.50
2018-07-02T09:52:48.005Z,1.40
2018-07-02T09:55:17.176Z,1.70
2018-07-02T09:57:47.239Z,1.20
2018-07-02T10:00:15.976Z,1.50
2018-07-02T10:02:45.234Z,1.30
2018-07-02T10:05:15.783Z,1.10
2018-07-02T10:07:44.588Z,1.42
2018-07-02T10:10:13.596Z,1.37
2018-07-02T10:12:50.361Z,1.25
2018-07-02T10:15:19.332Z,1.20
2018-07-02T10:17:48.512Z,0.93
2018-07-02T10:20:17.784Z,1.30
2018-07-02T10:22:46.735Z,1.17
2018-07-02T10:25:15.632Z,1.30
2018-07-02T10:27:44.632Z,1.75
2018-07-02T10:30:13.536Z,1.30
2018-07-02T10:32:42.819Z,0.98
2018-07-02T10:35:12.260Z,0.90
2018-07-02T10:37:41.504Z,1.20
2018-07-02T10:40:10.128Z,1.00
2018-07-02T10:42:39.347Z,0.90
2018-07-02T10:45:08.525Z,0.90
2018-07-02T10:47:37.740Z,1.00
2018-07-02T10:50:06.956Z,1.00
2018-07-02T10:52:36.076Z,0.90
2018-07-02T10:55:05.490Z,0.98
2018-07-02T10:57:34.384Z,0.90
2018-07-02T11:00:03.294Z,1.07
2018-07-02T11:02:32.459Z,1.27
2018-07-02T11:05:01.832Z,1.10
2018-07-02T11:07:31.204Z,1.10
2018-07-02T11:09:59.492Z,1.17
2018-07-02T11:12:28.441Z,1.05
2018-07-02T11:14:58.131Z,0.75
2018-07-02T11:17:27.280Z,1.27
2018-07-02T11:19:55.976Z,0.95
2018-07-02T11:22:25.299Z,0.90
2018-07-02T11:24:55.096Z,1.07
2018-07-02T11:27:23.968Z,1.10
2018-07-02T11:29:53.366Z,1.30
2018-07-02T11:32:23.768Z,1.40
2018-07-02T11:34:52.412Z,1.55
2018-07-02T11:37:22.004Z,1.20
2018-07-02T11:39:51.144Z,0.82
2018-07-02T11:42:20.173Z,0.70
2018-07-02T11:44:49.597Z,1.20
2018-07-02T11:47:18.603Z,0.95
2018-07-02T11:49:47.999Z,0.80
2018-07-02T11:52:17.007Z,0.80
2018-07-02T11:54:46.342Z,0.90
2018-07-02T11:57:15.266Z,0.82
2018-07-02T11:59:44.329Z,0.72
2018-07-02T12:02:13.291Z,0.90
2018-07-02T12:04:42.854Z,0.90
2018-07-02T12:07:11.891Z,0.85
2018-07-02T12:09:40.711Z,0.70
2018-07-02T12:12:09.123Z,1.10
2018-07-02T12:14:38.400Z,0.80
2018-07-02T12:17:06.992Z,0.85
2018-07-02T12:19:35.773Z,0.90
2018-07-02T12:22:04.874Z,1.10
2018-07-02T12:24:34.360Z,0.88
2018-07-02T12:27:02.950Z,0.93
2018-07-02T12:29:32.274Z,1.02
2018-07-02T12:32:01.688Z,0.70
2018-07-02T12:34:30.679Z,0.90
2018-07-02T12:36:59.985Z,1.07
2018-07-02T12:39:28.659Z,1.17
2018-07-02T12:41:58.055Z,1.20
2018-07-02T12:44:27.490Z,1.20
2018-07-02T12:46:56.848Z,1.32
2018-07-02T12:49:26.148Z,0.85
2018-07-02T12:51:55.458Z,1.10
2018-07-02T12:54:24.989Z,0.95
2018-07-02T12:56:54.225Z,1.25
2018-07-02T12:59:23.572Z,1.05
2018-07-02T13:01:52.703Z,1.30
2018-07-02T13:04:21.779Z,1.10
2018-07-02T13:06:51.196Z,1.20
2018-07-02T13:09:20.712Z,1.73
2018-07-02T13:11:49.584Z,1.00
2018-07-02T13:14:17.936Z,1.00
2018-07-02T13:16:46.888Z,1.10
2018-07-02T13:19:16.908Z,1.00
2018-07-02T13:21:46.520Z,1.00
2018-07-02T13:24:15.624Z,1.50
2018-07-02T13:26:44.923Z,0.93
2018-07-02T13:29:14.236Z,1.22
2018-07-02T13:31:42.956Z,1.00
2018-07-02T13:34:11.940Z,1.17
2018-07-02T13:36:40.903Z,1.00
2018-07-02T13:39:10.752Z,1.10
2018-07-02T13:41:39.705Z,1.20
2018-07-02T13:44:09.080Z,1.57
2018-07-02T13:46:37.367Z,1.30
2018-07-02T13:49:06.700Z,1.73
2018-07-02T13:51:35.516Z,1.30
2018-07-02T13:54:04.904Z,1.20
2018-07-02T13:56:34.463Z,1.20
2018-07-02T13:59:03.711Z,1.30
2018-07-02T14:01:32.776Z,0.93
2018-07-02T14:04:02.207Z,1.10
2018-07-02T14:06:31.222Z,1.50
2018-07-02T14:09:00.259Z,1.33
2018-07-02T14:11:29.264Z,1.40
2018-07-02T14:14:02.380Z,1.20
2018-07-02T14:16:31.636Z,1.20
2018-07-02T14:19:00.444Z,1.20
2018-07-02T14:21:29.691Z,0.93
2018-07-02T14:23:59.209Z,1.37
2018-07-02T14:26:28.284Z,1.53
2018-07-02T14:28:57.456Z,2.47
2018-07-02T14:31:27.303Z,1.60
2018-07-02T14:33:56.405Z,1.40
2018-07-02T14:36:29.956Z,1.43
2018-07-02T14:38:59.277Z,1.23
2018-07-02T14:41:28.273Z,1.30
2018-07-02T14:43:57.181Z,1.40
2018-07-02T14:46:26.474Z,1.70
2018-07-02T14:48:55.375Z,1.47
2018-07-02T14:51:27.973Z,1.50
2018-07-02T14:53:57.127Z,1.33
2018-07-02T14:56:26.225Z,1.40
2018-07-02T14:58:55.533Z,1.40
2018-07-02T15:01:25.457Z,1.27
2018-07-02T15:03:54.516Z,1.30
2018-07-02T15:06:23.656Z,1.80
2018-07-02T15:08:53.489Z,1.30
2018-07-02T15:11:22.169Z,1.63
2018-07-02T15:13:51.790Z,1.50
2018-07-02T15:16:21.097Z,1.50
2018-07-02T15:18:50.086Z,1.53
2018-07-02T15:21:18.964Z,1.30
2018-07-02T15:23:48.236Z,1.30
2018-07-02T15:26:17.472Z,1.60
2018-07-02T15:28:46.115Z,1.40
2018-07-02T15:31:15.060Z,1.37
2018-07-02T15:33:44.126Z,1.63
2018-07-02T15:36:13.064Z,1.33
2018-07-02T15:38:42.059Z,1.70
2018-07-02T15:41:11.390Z,1.23
2018-07-02T15:43:40.608Z,1.70
2018-07-02T15:46:09.600Z,1.50
2018-07-02T15:48:38.961Z,1.60
2018-07-02T15:51:07.856Z,1.60
2018-07-02T15:53:36.908Z,1.70
2018-07-02T15:56:09.573Z,1.57
2018-07-02T15:58:38.844Z,1.60
2018-07-02T16:01:07.199Z,1.37
2018-07-02T16:03:35.955Z,1.87
2018-07-02T16:06:05.507Z,1.67
2018-07-02T16:08:34.095Z,1.70
2018-07-02T16:11:03.425Z,1.50
2018-07-02T16:13:32.488Z,1.40
2018-07-02T16:16:01.127Z,1.47
2018-07-02T16:18:30.299Z,1.30
2018-07-02T16:20:59.274Z,1.60
2018-07-02T16:23:28.512Z,1.30
2018-07-02T16:25:57.580Z,1.40
2018-07-02T16:28:27.244Z,1.60
2018-07-02T16:30:56.272Z,1.50
2018-07-02T16:33:25.402Z,1.73
2018-07-02T16:35:54.520Z,1.37
2018-07-02T16:38:23.216Z,1.40
2018-07-02T16:40:52.504Z,1.30
2018-07-02T16:43:21.737Z,1.60
2018-07-02T16:45:51.181Z,1.40
2018-07-02T16:48:20.426Z,1.30
2018-07-02T16:50:49.567Z,1.30
2018-07-02T16:53:20.319Z,1.50
2018-07-02T16:55:49.180Z,1.50
2018-07-02T16:58:18.399Z,1.30
2018-07-02T17:00:47.396Z,1.33
2018-07-02T17:03:16.478Z,1.73
2018-07-02T17:05:45.478Z,1.50
2018-07-02T17:08:15.164Z,1.63
2018-07-02T17:10:44.559Z,1.43
2018-07-02T17:13:13.595Z,1.73
2018-07-02T17:15:43.466Z,1.50
2018-07-02T17:18:12.872Z,1.30
2018-07-02T17:20:42.203Z,1.40
2018-07-02T17:23:11.324Z,1.60
2018-07-02T17:25:40.285Z,1.77
2018-07-02T17:28:09.181Z,1.60
2018-07-02T17:30:38.572Z,1.40
2018-07-02T17:33:07.912Z,2.00
2018-07-02T17:35:37.076Z,1.50
2018-07-02T17:38:06.447Z,1.40
2018-07-02T17:40:35.612Z,1.43
2018-07-02T17:43:05.020Z,1.40
2018-07-02T17:45:34.232Z,1.50
2018-07-02T17:48:03.172Z,1.70
2018-07-02T17:50:32.393Z,1.53
2018-07-02T17:53:01.731Z,1.33
2018-07-02T17:55:30.993Z,1.67
2018-07-02T17:58:00.948Z,1.70
2018-07-02T18:00:29.837Z,1.60
2018-07-02T18:02:59.583Z,2.10
2018-07-02T18:05:28.863Z,1.70
2018-07-02T18:07:57.912Z,1.50
2018-07-02T18:10:26.772Z,1.33
2018-07-02T18:12:55.618Z,1.63
2018-07-02T18:15:24.893Z,1.50
2018-07-02T18:17:54.258Z,1.40
2018-07-02T18:20:23.491Z,1.30
2018-07-02T18:22:56.248Z,1.30
2018-07-02T18:25:25.881Z,1.43
2018-07-02T18:27:55.807Z,1.60
2018-07-02T18:30:27.984Z,1.50
2018-07-02T18:32:58.274Z,1.30
2018-07-02T18:35:26.732Z,1.60
2018-07-02T18:37:56.196Z,1.43
2018-07-02T18:40:24.572Z,1.43
2018-07-02T18:42:57.340Z,1.80
2018-07-02T18:45:26.435Z,1.60
2018-07-02T18:47:55.235Z,1.70
2018-07-02T18:50:24.628Z,1.60
2018-07-02T18:52:54.161Z,1.60
2018-07-02T18:55:23.385Z,1.77
2018-07-02T18:57:52.260Z,1.30
2018-07-02T19:00:21.644Z,1.53
2018-07-02T19:02:51.499Z,1.47
2018-07-02T19:05:20.411Z,1.60
2018-07-02T19:07:49.253Z,1.63
2018-07-02T19:10:18.456Z,1.50
2018-07-02T19:12:47.496Z,1.67
2018-07-02T19:15:17.051Z,1.40
2018-07-02T19:17:46.299Z,1.30
2018-07-02T19:20:15.674Z,1.60
2018-07-02T19:22:44.871Z,1.83
2018-07-02T19:25:14.356Z,1.83
2018-07-02T19:27:43.483Z,1.77
2018-07-02T19:30:12.437Z,1.60
2018-07-02T19:32:45.296Z,1.57
2018-07-02T19:35:14.730Z,1.50
2018-07-02T19:37:43.416Z,1.40
2018-07-02T19:40:12.600Z,1.47
2018-07-02T19:42:41.640Z,1.50
2018-07-02T19:45:10.416Z,1.50
2018-07-02T19:47:40.175Z,1.40
2018-07-02T19:50:09.171Z,1.70
2018-07-02T19:52:38.404Z,1.30
2018-07-02T19:55:07.715Z,1.40
2018-07-02T19:57:37.065Z,1.50
2018-07-02T20:00:05.984Z,1.60
2018-07-02T20:02:35.012Z,1.60
2018-07-02T20:05:04.111Z,1.70
2018-07-02T20:07:32.923Z,1.50
2018-07-02T20:10:02.037Z,1.70
2018-07-02T20:12:33.009Z,1.47
2018-07-02T20:15:01.892Z,1.40
2018-07-02T20:17:30.908Z,1.40
2018-07-02T20:20:00.305Z,1.67
2018-07-02T20:22:29.511Z,1.60
2018-07-02T20:24:58.528Z,1.40
2018-07-02T20:27:27.636Z,1.47
2018-07-02T20:29:56.320Z,1.50
2018-07-02T20:32:25.048Z,1.77
2018-07-02T20:34:54.187Z,1.50
2018-07-02T20:37:23.928Z,1.50
2018-07-02T20:39:53.644Z,1.47
2018-07-02T20:42:22.300Z,1.30
2018-07-02T20:44:51.245Z,1.70
2018-07-02T20:47:20.208Z,1.50
2018-07-02T20:49:49.091Z,1.40
2018-07-02T20:52:18.652Z,1.53
2018-07-02T20:54:48.255Z,1.80
2018-07-02T20:57:18.032Z,1.80
2018-07-02T20:59:47.632Z,1.57
2018-07-02T21:02:16.720Z,1.50
2018-07-02T21:04:46.296Z,1.40
2018-07-02T21:07:14.884Z,1.47
2018-07-02T21:09:44.353Z,1.70
2018-07-02T21:12:13.676Z,1.20
2018-07-02T21:14:43.119Z,1.50
2018-07-02T21:17:12.497Z,1.30
2018-07-02T21:19:42.604Z,1.30
2018-07-02T21:22:11.401Z,1.50
2018-07-02T21:24:40.423Z,1.30
2018-07-02T21:27:10.019Z,1.57
2018-07-02T21:29:38.991Z,1.20
2018-07-02T21:32:07.806Z,1.53
2018-07-02T21:34:36.905Z,2.13
2018-07-02T21:37:06.650Z,1.57
2018-07-02T21:39:36.083Z,1.50
2018-07-02T21:42:05.491Z,1.90
2018-07-02T21:44:34.753Z,1.67
2018-07-02T21:47:03.736Z,1.70
2018-07-02T21:49:33.388Z,1.37
2018-07-02T21:52:02.507Z,1.57
2018-07-02T21:54:31.565Z,1.50
2018-07-02T21:57:01.613Z,1.40
2018-07-02T21:59:30.745Z,1.70
2018-07-02T22:02:00.251Z,1.60
2018-07-02T22:04:29.508Z,1.40
2018-07-02T22:06:58.870Z,1.47
2018-07-02T22:09:28.093Z,1.40
2018-07-02T22:11:57.375Z,1.30
2018-07-02T22:14:26.185Z,1.93
2018-07-02T22:16:56.084Z,1.50
2018-07-02T22:19:25.174Z,1.10
2018-07-02T22:21:54.663Z,1.30
2018-07-02T22:24:23.088Z,1.40
2018-07-02T22:26:51.993Z,1.40
2018-07-02T22:29:21.013Z,1.60
2018-07-02T22:31:50.336Z,1.40
2018-07-02T22:34:20.294Z,1.50
2018-07-02T22:36:49.536Z,1.13
2018-07-02T22:39:18.596Z,1.40
2018-07-02T22:41:47.588Z,1.60
2018-07-02T22:44:16.864Z,1.50
2018-07-02T22:46:46.301Z,1.50
2018-07-02T22:49:15.339Z,1.47
2018-07-02T22:51:43.826Z,1.17
2018-07-02T22:54:12.284Z,1.37
2018-07-02T22:56:41.191Z,1.50
2018-07-02T22:59:10.444Z,1.50
2018-07-02T23:01:43.488Z,1.47
2018-07-02T23:04:12.484Z,1.20
2018-07-02T23:06:41.572Z,1.20
2018-07-02T23:09:10.890Z,1.30
2018-07-02T23:11:39.985Z,1.40
2018-07-02T23:14:09.393Z,1.50
2018-07-02T23:16:39.828Z,1.80
2018-07-02T23:19:09.127Z,1.60
2018-07-02T23:21:38.041Z,1.40
2018-07-02T23:24:07.729Z,1.50
2018-07-02T23:26:37.016Z,1.80
2018-07-02T23:29:06.379Z,1.53
2018-07-02T23:31:35.808Z,1.63
2018-07-02T23:34:04.421Z,1.33
2018-07-02T23:36:34.192Z,1.97
2018-07-02T23:39:03.028Z,1.33
2018-07-02T23:41:32.386Z,1.80
2018-07-02T23:44:01.111Z,2.00
2018-07-02T23:46:30.260Z,2.07
2018-07-02T23:48:59.132Z,1.50
2018-07-02T23:51:27.938Z,1.97
2018-07-02T23:53:57.751Z,1.57
2018-07-02T23:56:26.168Z,1.57
2018-07-02T23:58:54.876Z,1.67
